4O4

Mc Curtain County Regional Airport

Idabel, Oklahoma, USA
METAR K4O4 201115Z AUTO 00000KT 10SM CLR 00/M01 A3030 RMK AO2
Observed Flight Rules
Nov-20 @ 11:15 UTC (23 minutes ago) Visual Flight Rules
Visibility Clouds
10 miles
  • Clear skies
Temperatures Readings
Current 0°C / 32°F
Dewpoint -1°C / 30°F
Humidity 93%
Altimeter 30.3" Hg
Pressure 1026 hPa
Elevation 144
METAR K4O4 201115Z AUTO 00000KT 10SM CLR 00/M01 A3030 RMK AO2
Observed Flight Rules
Nov-20 @ 11:15 UTC
(23 minutes ago)
VFR
Clouds
  • Clear skies
Temperature Dewpoint
0°C / 32°F -1°C / 30°F
Humidity Altimeter Pressure
93% 30.3" Hg 1026 hPa